createdAt,value
2022-08-22T00:03:00.471Z,1000.86
2022-08-22T00:03:24.195Z,1001.10
2022-08-22T00:04:24.242Z,1001.12
2022-08-22T00:05:24.322Z,1001.14
2022-08-22T00:06:24.375Z,1001.16
2022-08-22T00:07:24.450Z,1001.16
2022-08-22T00:08:24.517Z,1001.18
2022-08-22T00:09:24.597Z,1001.14
2022-08-22T00:10:25.477Z,1001.16
2022-08-22T00:11:24.742Z,1001.14
2022-08-22T00:12:24.793Z,1001.14
2022-08-22T00:13:24.885Z,1001.12
2022-08-22T00:14:24.934Z,1001.12
2022-08-22T00:15:43.235Z,1001.14
2022-08-22T00:16:25.091Z,1001.12
2022-08-22T00:17:25.189Z,1001.11
2022-08-22T00:18:25.254Z,1001.10
2022-08-22T00:19:25.334Z,1001.05
2022-08-22T00:20:26.111Z,1001.09
2022-08-22T00:21:25.488Z,1001.11
2022-08-22T00:22:25.563Z,1001.14
2022-08-22T00:23:25.663Z,1001.14
2022-08-22T00:24:25.708Z,1001.13
2022-08-22T00:25:26.318Z,1001.12
2022-08-22T00:26:25.857Z,1001.12
2022-08-22T00:27:25.937Z,1001.09
2022-08-22T00:28:26.000Z,1001.13
2022-08-22T00:29:26.061Z,1001.12
2022-08-22T00:30:26.128Z,1001.12
2022-08-22T00:31:26.223Z,1001.12
2022-08-22T00:32:26.276Z,1001.11
2022-08-22T00:33:26.371Z,1001.08
2022-08-22T00:34:26.575Z,1001.06
2022-08-22T00:35:26.515Z,1001.09
2022-08-22T00:36:26.582Z,1001.10
2022-08-22T00:37:26.658Z,1001.10
2022-08-22T00:38:26.760Z,1001.12
2022-08-22T00:39:26.817Z,1001.15
2022-08-22T00:40:26.869Z,1001.13
2022-08-22T00:41:26.949Z,1001.14
2022-08-22T00:42:31.397Z,1001.10
2022-08-22T00:43:27.142Z,1001.08
2022-08-22T00:44:27.189Z,1001.09
2022-08-22T00:45:27.266Z,1001.09
2022-08-22T00:46:27.317Z,1001.11
2022-08-22T00:47:27.397Z,1001.13
2022-08-22T00:48:27.471Z,1001.15
2022-08-22T00:49:29.681Z,1001.13
2022-08-22T00:50:27.598Z,1001.08
2022-08-22T00:51:27.675Z,1001.11
2022-08-22T00:52:27.732Z,1001.10
2022-08-22T00:53:27.834Z,1001.10
2022-08-22T00:54:27.881Z,1001.05
2022-08-22T00:55:29.009Z,1001.08
2022-08-22T00:56:28.021Z,1001.03
2022-08-22T00:57:28.121Z,1001.03
2022-08-22T00:58:28.185Z,1001.04
2022-08-22T00:59:28.267Z,1001.01
2022-08-22T01:00:28.314Z,1001.02
2022-08-22T01:01:28.460Z,1001.02
2022-08-22T01:02:28.471Z,1001.02
2022-08-22T01:03:28.587Z,1001.02
2022-08-22T01:04:28.602Z,1000.99
2022-08-22T01:05:28.680Z,1000.94
2022-08-22T01:06:28.732Z,1000.96
2022-08-22T01:07:30.562Z,1000.94
2022-08-22T01:08:28.888Z,1000.95
2022-08-22T01:09:28.969Z,1000.92
2022-08-22T01:10:29.036Z,1000.92
2022-08-22T01:11:29.096Z,1000.93
2022-08-22T01:12:29.149Z,1000.94
2022-08-22T01:13:29.239Z,1000.94
2022-08-22T01:14:34.770Z,1000.94
2022-08-22T01:15:29.405Z,1000.90
2022-08-22T01:16:29.444Z,1000.91
2022-08-22T01:17:29.557Z,1000.94
2022-08-22T01:18:29.606Z,1000.92
2022-08-22T01:19:29.684Z,1000.86
2022-08-22T01:20:29.764Z,1000.88
2022-08-22T01:21:29.842Z,1000.87
2022-08-22T01:22:29.902Z,1000.84
2022-08-22T01:23:29.993Z,1000.88
2022-08-22T01:24:30.033Z,1000.87
2022-08-22T01:25:30.115Z,1000.87
2022-08-22T01:26:30.185Z,1000.83
2022-08-22T01:27:30.266Z,1000.85
2022-08-22T01:28:30.343Z,1000.86
2022-08-22T01:29:30.381Z,1000.85
2022-08-22T01:30:30.456Z,1000.88
2022-08-22T01:31:30.511Z,1000.90
2022-08-22T01:32:30.589Z,1000.86
2022-08-22T01:33:30.652Z,1000.87
2022-08-22T01:34:30.736Z,1000.86
2022-08-22T01:35:30.792Z,1000.88
2022-08-22T01:36:30.871Z,1000.81
2022-08-22T01:37:30.923Z,1000.82
2022-08-22T01:38:31.016Z,1000.84
2022-08-22T01:39:31.062Z,1000.84
2022-08-22T01:40:31.139Z,1000.85
2022-08-22T01:41:31.192Z,1000.85
2022-08-22T01:42:31.292Z,1000.82
2022-08-22T01:43:58.677Z,1000.78
2022-08-22T01:44:31.456Z,1000.79
2022-08-22T01:45:31.503Z,1000.77
2022-08-22T01:46:31.581Z,1000.85
2022-08-22T01:47:37.490Z,1000.82
2022-08-22T01:48:32.044Z,1000.83
2022-08-22T01:49:31.815Z,1000.81
2022-08-22T01:50:31.893Z,1000.83
2022-08-22T01:51:31.946Z,1000.83
2022-08-22T01:52:32.044Z,1000.85
2022-08-22T01:53:32.119Z,1000.88
2022-08-22T01:54:32.180Z,1000.88
2022-08-22T01:55:32.233Z,1000.86
2022-08-22T01:56:32.307Z,1000.85
2022-08-22T01:57:32.360Z,1000.85
2022-08-22T01:58:32.542Z,1000.82
2022-08-22T01:59:34.064Z,1000.82
2022-08-22T02:00:35.325Z,1000.83
2022-08-22T02:01:32.648Z,1000.81
2022-08-22T02:02:32.727Z,1000.75
2022-08-22T02:03:32.803Z,1000.77
2022-08-22T02:04:32.881Z,1000.74
2022-08-22T02:05:32.953Z,1000.76
2022-08-22T02:06:33.031Z,1000.74
2022-08-22T02:07:33.082Z,1000.74
2022-08-22T02:08:33.184Z,1000.75
2022-08-22T02:09:33.233Z,1000.75
2022-08-22T02:10:33.333Z,1000.72
2022-08-22T02:11:33.386Z,1000.74
2022-08-22T02:12:33.466Z,1000.71
2022-08-22T02:13:33.532Z,1000.73
2022-08-22T02:14:33.610Z,1000.75
2022-08-22T02:15:33.662Z,1000.74
2022-08-22T02:16:33.745Z,1000.77
2022-08-22T02:17:33.800Z,1000.76
2022-08-22T02:18:33.892Z,1000.70
2022-08-22T02:19:33.942Z,1000.83
2022-08-22T02:20:34.026Z,1000.76
2022-08-22T02:21:34.083Z,1000.75
2022-08-22T02:22:34.164Z,1000.74
2022-08-22T02:23:34.236Z,1000.73
2022-08-22T02:24:34.317Z,1000.71
2022-08-22T02:25:34.370Z,1000.70
2022-08-22T02:26:34.448Z,1000.70
2022-08-22T02:27:34.520Z,1000.72
2022-08-22T02:28:34.619Z,1000.71
2022-08-22T02:29:34.675Z,1000.74
2022-08-22T02:30:34.749Z,1000.73
2022-08-22T02:31:34.802Z,1000.74
2022-08-22T02:32:34.880Z,1000.74
2022-08-22T02:33:34.943Z,1000.71
2022-08-22T02:34:35.026Z,1000.68
2022-08-22T02:35:35.080Z,1000.64
2022-08-22T02:36:35.160Z,1000.68
2022-08-22T02:37:35.212Z,1000.66
2022-08-22T02:38:35.314Z,1000.68
2022-08-22T02:39:35.365Z,1000.66
2022-08-22T02:40:35.444Z,1000.65
2022-08-22T02:41:35.492Z,1000.65
2022-08-22T02:42:35.572Z,1000.64
2022-08-22T02:43:35.638Z,1000.63
2022-08-22T02:44:35.717Z,1000.66
2022-08-22T02:45:35.767Z,1000.64
2022-08-22T02:46:35.847Z,1000.65
2022-08-22T02:47:35.923Z,1000.64
2022-08-22T02:48:36.023Z,1000.66
2022-08-22T02:49:36.079Z,1000.59
2022-08-22T02:50:36.188Z,1000.63
2022-08-22T02:51:36.237Z,1000.54
2022-08-22T02:52:36.316Z,1000.54
2022-08-22T02:53:36.399Z,1000.55
2022-08-22T02:54:36.483Z,1000.54
2022-08-22T02:55:36.546Z,1000.55
2022-08-22T02:56:36.629Z,1000.52
2022-08-22T02:57:39.362Z,1000.49
2022-08-22T02:58:36.818Z,1000.51
2022-08-22T02:59:36.824Z,1000.49
2022-08-22T03:00:36.948Z,1000.48
2022-08-22T03:01:36.991Z,1000.45
2022-08-22T03:02:37.057Z,1000.56
2022-08-22T03:03:37.122Z,1000.50
2022-08-22T03:04:37.201Z,1000.48
2022-08-22T03:05:37.255Z,1000.55
2022-08-22T03:06:37.332Z,1000.54
2022-08-22T03:07:37.414Z,1000.48
2022-08-22T03:08:37.805Z,1000.47
2022-08-22T03:09:37.570Z,1000.47
2022-08-22T03:10:37.653Z,1000.45
2022-08-22T03:11:37.700Z,1000.49
2022-08-22T03:12:37.778Z,1000.50
2022-08-22T03:13:37.842Z,1000.48
2022-08-22T03:14:37.903Z,1000.48
2022-08-22T03:15:37.955Z,1000.46
2022-08-22T03:16:38.034Z,1000.49
2022-08-22T03:17:38.085Z,1000.51
2022-08-22T03:18:38.269Z,1000.46
2022-08-22T03:19:38.244Z,1000.44
2022-08-22T03:20:38.325Z,1000.44
2022-08-22T03:21:38.401Z,1000.44
2022-08-22T03:22:38.482Z,1000.46
2022-08-22T03:23:38.542Z,1000.47
2022-08-22T03:24:38.627Z,1000.46
2022-08-22T03:25:38.681Z,1000.45
2022-08-22T03:26:38.779Z,1000.45
2022-08-22T03:27:38.837Z,1000.45
2022-08-22T03:28:38.940Z,1000.44
2022-08-22T03:29:39.003Z,1000.39
2022-08-22T03:30:39.073Z,1000.43
2022-08-22T03:31:39.125Z,1000.42
2022-08-22T03:32:39.201Z,1000.40
2022-08-22T03:33:39.266Z,1000.35
2022-08-22T03:34:39.345Z,1000.39
2022-08-22T03:35:39.412Z,1000.39
2022-08-22T03:36:39.492Z,1000.38
2022-08-22T03:37:39.543Z,1000.33
2022-08-22T03:38:39.666Z,1000.36
2022-08-22T03:39:39.745Z,1000.33
2022-08-22T03:40:39.813Z,1000.35
2022-08-22T03:41:39.870Z,1000.34
2022-08-22T03:42:39.964Z,1000.34
2022-08-22T03:43:40.028Z,1000.35
2022-08-22T03:44:40.106Z,1000.30
2022-08-22T03:45:40.185Z,1000.31
2022-08-22T03:46:40.273Z,1000.30
2022-08-22T03:47:40.323Z,1000.33
2022-08-22T03:48:40.537Z,1000.29
2022-08-22T03:49:40.463Z,1000.30
2022-08-22T03:50:40.561Z,1000.25
2022-08-22T03:51:40.612Z,1000.25
2022-08-22T03:52:40.692Z,1000.27
2022-08-22T03:53:40.765Z,1000.25
2022-08-22T03:54:40.845Z,1000.24
2022-08-22T03:55:40.900Z,1000.28
2022-08-22T03:56:41.003Z,1000.24
2022-08-22T03:57:41.061Z,1000.26
2022-08-22T03:58:41.164Z,1000.22
2022-08-22T03:59:42.515Z,1000.25
2022-08-22T04:00:41.345Z,1000.24
2022-08-22T04:01:41.367Z,1000.17
2022-08-22T04:02:42.817Z,1000.21
2022-08-22T04:03:41.547Z,1000.24
2022-08-22T04:04:41.637Z,1000.22
2022-08-22T04:05:41.679Z,1000.26
2022-08-22T04:06:41.774Z,1000.29
2022-08-22T04:07:41.897Z,1000.27
2022-08-22T04:08:43.785Z,1000.27
2022-08-22T04:09:41.963Z,1000.27
2022-08-22T04:10:42.057Z,1000.27
2022-08-22T04:11:42.124Z,1000.25
2022-08-22T04:12:42.205Z,1000.21
2022-08-22T04:13:42.297Z,1000.22
2022-08-22T04:14:42.371Z,1000.27
2022-08-22T04:15:42.456Z,1000.24
2022-08-22T04:16:42.536Z,1000.26
2022-08-22T04:17:42.623Z,1000.30
2022-08-22T04:18:42.842Z,1000.31
2022-08-22T04:19:42.776Z,1000.29
2022-08-22T04:20:42.861Z,1000.28
2022-08-22T04:21:42.903Z,1000.28
2022-08-22T04:22:42.980Z,1000.29
2022-08-22T04:23:43.073Z,1000.25
2022-08-22T04:24:43.155Z,1000.27
2022-08-22T04:25:43.223Z,1000.25
2022-08-22T04:26:43.319Z,1000.26
2022-08-22T04:27:43.371Z,1000.26
2022-08-22T04:28:43.473Z,1000.25
2022-08-22T04:29:43.518Z,1000.24
2022-08-22T04:30:43.596Z,1000.22
2022-08-22T04:31:43.674Z,1000.24
2022-08-22T04:32:43.748Z,1000.29
2022-08-22T04:33:43.861Z,1000.28
2022-08-22T04:34:43.954Z,1000.27
2022-08-22T04:35:44.003Z,1000.28
2022-08-22T04:36:44.100Z,1000.25
2022-08-22T04:37:44.149Z,1000.24
2022-08-22T04:38:44.243Z,1000.26
2022-08-22T04:39:44.312Z,1000.28
2022-08-22T04:40:44.388Z,1000.26
2022-08-22T04:41:44.433Z,1000.26
2022-08-22T04:42:44.530Z,1000.23
2022-08-22T04:43:44.653Z,1000.27
2022-08-22T04:44:44.706Z,1000.27
2022-08-22T04:45:44.791Z,1000.27
2022-08-22T04:46:44.887Z,1000.33
2022-08-22T04:47:46.037Z,1000.34
2022-08-22T04:48:45.066Z,1000.33
2022-08-22T04:49:45.114Z,1000.35
2022-08-22T04:50:45.205Z,1000.36
2022-08-22T04:51:45.275Z,1000.41
2022-08-22T04:52:45.352Z,1000.38
2022-08-22T04:53:45.441Z,1000.44
2022-08-22T04:54:45.519Z,1000.46
2022-08-22T04:55:45.609Z,1000.46
2022-08-22T04:56:45.700Z,1000.47
2022-08-22T04:57:45.789Z,1000.47
2022-08-22T04:58:45.891Z,1000.46
2022-08-22T04:59:45.921Z,1000.47
2022-08-22T05:00:45.995Z,1000.45
2022-08-22T05:01:46.113Z,1000.47
2022-08-22T05:02:46.179Z,1000.45
2022-08-22T05:03:46.261Z,1000.48
2022-08-22T05:04:46.345Z,1000.41
2022-08-22T05:05:46.391Z,1000.37
2022-08-22T05:06:46.472Z,1000.38
2022-08-22T05:07:46.526Z,1000.41
2022-08-22T05:08:48.391Z,1000.44
2022-08-22T05:09:46.679Z,1000.42
2022-08-22T05:10:46.772Z,1000.46
2022-08-22T05:11:46.832Z,1000.48
2022-08-22T05:12:46.916Z,1000.51
2022-08-22T05:13:46.981Z,1000.54
2022-08-22T05:14:47.067Z,1000.49
2022-08-22T05:15:47.113Z,1000.54
2022-08-22T05:16:47.191Z,1000.56
2022-08-22T05:17:47.285Z,1000.56
2022-08-22T05:18:47.399Z,1000.59
2022-08-22T05:19:47.451Z,1000.56
2022-08-22T05:20:47.545Z,1000.58
2022-08-22T05:21:47.606Z,1000.54
2022-08-22T05:22:47.688Z,1000.57
2022-08-22T05:23:47.766Z,1000.55
2022-08-22T05:24:47.838Z,1000.58
2022-08-22T05:25:47.887Z,1000.51
2022-08-22T05:26:47.984Z,1000.61
2022-08-22T05:27:48.034Z,1000.57
2022-08-22T05:28:52.490Z,1000.58
2022-08-22T05:29:48.208Z,1000.60
2022-08-22T05:30:48.301Z,1000.58
2022-08-22T05:31:48.370Z,1000.56
2022-08-22T05:32:48.449Z,1000.53
2022-08-22T05:33:48.562Z,1000.55
2022-08-22T05:34:48.634Z,1000.55
2022-08-22T05:35:50.898Z,1000.53
2022-08-22T05:36:48.789Z,1000.48
2022-08-22T05:37:48.838Z,1000.46
2022-08-22T05:38:48.938Z,1000.48
2022-08-22T05:39:49.020Z,1000.51
2022-08-22T05:40:49.084Z,1000.50
2022-08-22T05:41:49.137Z,1000.51
2022-08-22T05:42:49.229Z,1000.50
2022-08-22T05:43:49.296Z,1000.49
2022-08-22T05:44:49.345Z,1000.50
2022-08-22T05:45:49.426Z,1000.46
2022-08-22T05:46:49.500Z,1000.49
2022-08-22T05:47:49.592Z,1000.50
2022-08-22T05:48:49.693Z,1000.52
2022-08-22T05:49:49.774Z,1000.57
2022-08-22T05:50:51.097Z,1000.60
2022-08-22T05:51:49.927Z,1000.59
2022-08-22T05:52:49.977Z,1000.67
2022-08-22T05:53:50.075Z,1000.65
2022-08-22T05:54:50.128Z,1000.65
2022-08-22T05:55:50.209Z,1000.63
2022-08-22T05:56:50.259Z,1000.64
2022-08-22T05:57:50.339Z,1000.60
2022-08-22T05:58:50.441Z,1000.58
2022-08-22T05:59:50.522Z,1000.58
2022-08-22T06:00:50.612Z,1000.57
2022-08-22T06:01:50.758Z,1000.56
2022-08-22T06:02:50.771Z,1000.57
2022-08-22T06:03:50.866Z,1000.58
2022-08-22T06:04:50.912Z,1000.54
2022-08-22T06:05:51.010Z,1000.61
2022-08-22T06:06:51.061Z,1000.57
2022-08-22T06:07:51.141Z,1000.57
2022-08-22T06:08:51.225Z,1000.59
2022-08-22T06:09:51.306Z,1000.62
2022-08-22T06:10:51.390Z,1000.62
2022-08-22T06:11:52.145Z,1000.61
2022-08-22T06:12:51.541Z,1000.65
2022-08-22T06:13:52.213Z,1000.66
2022-08-22T06:14:51.694Z,1000.70
2022-08-22T06:15:51.776Z,1000.72
2022-08-22T06:16:51.852Z,1000.69
2022-08-22T06:17:51.945Z,1000.67
2022-08-22T06:18:52.024Z,1000.68
2022-08-22T06:19:52.102Z,1000.69
2022-08-22T06:20:52.187Z,1000.72
2022-08-22T06:21:52.276Z,1000.76
2022-08-22T06:22:52.340Z,1000.85
2022-08-22T06:23:52.440Z,1001.00
2022-08-22T06:24:52.486Z,1001.02
2022-08-22T06:25:52.563Z,1001.04
2022-08-22T06:26:52.630Z,1001.03
2022-08-22T06:27:52.758Z,1001.03
2022-08-22T06:28:54.615Z,1000.97
2022-08-22T06:29:52.890Z,1001.00
2022-08-22T06:30:52.939Z,1001.01
2022-08-22T06:31:53.047Z,1001.02
2022-08-22T06:32:59.062Z,1001.04
2022-08-22T06:33:53.263Z,1001.04
2022-08-22T06:34:53.313Z,1001.03
2022-08-22T06:35:53.389Z,1001.06
2022-08-22T06:36:53.458Z,1001.03
2022-08-22T06:37:53.573Z,1001.04
2022-08-22T06:38:53.620Z,1001.06
2022-08-22T06:39:53.751Z,1001.04
2022-08-22T06:40:53.782Z,1001.09
2022-08-22T06:41:53.892Z,1001.02
2022-08-22T06:42:53.974Z,1001.05
2022-08-22T06:43:54.067Z,1001.04
2022-08-22T06:44:54.124Z,1001.05
2022-08-22T06:45:54.198Z,1001.06
2022-08-22T06:46:54.280Z,1001.01
2022-08-22T06:47:56.277Z,1001.01
2022-08-22T06:48:54.424Z,1001.02
2022-08-22T06:49:54.497Z,1001.05
2022-08-22T06:50:54.582Z,1001.04
2022-08-22T06:51:54.653Z,1001.00
2022-08-22T06:52:54.735Z,1001.03
2022-08-22T06:53:54.824Z,1000.96
2022-08-22T06:54:54.864Z,1000.95
2022-08-22T06:55:54.968Z,1000.98
2022-08-22T06:56:55.035Z,1000.97
2022-08-22T06:57:55.168Z,1000.98
2022-08-22T06:58:55.184Z,1000.96
2022-08-22T06:59:55.243Z,1000.96
2022-08-22T07:01:04.021Z,1000.97
2022-08-22T07:01:55.463Z,1000.98
2022-08-22T07:02:55.490Z,1000.94
2022-08-22T07:03:55.581Z,1000.96
2022-08-22T07:04:55.625Z,1000.94
2022-08-22T07:05:55.701Z,1001.00
2022-08-22T07:06:55.771Z,1000.93
2022-08-22T07:07:55.883Z,1000.91
2022-08-22T07:08:55.924Z,1000.92
2022-08-22T07:09:55.998Z,1000.93
2022-08-22T07:10:56.086Z,1000.98
2022-08-22T07:11:56.166Z,1001.01
2022-08-22T07:12:56.254Z,1001.00
2022-08-22T07:13:56.346Z,1000.99
2022-08-22T07:14:56.397Z,1000.94
2022-08-22T07:15:56.500Z,1000.95
2022-08-22T07:16:56.559Z,1000.98
2022-08-22T07:17:56.633Z,1000.94
2022-08-22T07:18:56.733Z,1000.90
2022-08-22T07:19:56.817Z,1000.92
2022-08-22T07:20:56.903Z,1000.88
2022-08-22T07:21:57.001Z,1000.85
2022-08-22T07:22:57.095Z,1000.88
2022-08-22T07:23:57.190Z,1000.91
2022-08-22T07:24:57.244Z,1000.89
2022-08-22T07:25:57.331Z,1000.91
2022-08-22T07:26:57.410Z,1000.93
2022-08-22T07:27:57.485Z,1000.98
2022-08-22T07:28:58.413Z,1000.92
2022-08-22T07:29:57.645Z,1000.93
2022-08-22T07:30:57.731Z,1000.93
2022-08-22T07:31:57.821Z,1000.96
2022-08-22T07:32:57.894Z,1000.97
2022-08-22T07:33:58.030Z,1001.00
2022-08-22T07:34:58.080Z,1000.99
2022-08-22T07:35:58.152Z,1000.91
2022-08-22T07:36:58.214Z,1000.96
2022-08-22T07:37:58.489Z,1000.97
2022-08-22T07:38:58.381Z,1000.98
2022-08-22T07:39:58.480Z,1000.95
2022-08-22T07:40:58.536Z,1000.99
2022-08-22T07:41:58.610Z,1000.97
2022-08-22T07:42:58.697Z,1001.00
2022-08-22T07:43:58.807Z,1001.01
2022-08-22T07:44:58.848Z,1001.01
2022-08-22T07:45:58.942Z,1001.05
2022-08-22T07:46:59.011Z,1001.00
2022-08-22T07:47:59.185Z,1001.01
2022-08-22T07:49:09.155Z,1001.01
2022-08-22T07:49:59.214Z,1001.02
2022-08-22T07:50:59.262Z,1001.00
2022-08-22T07:51:59.338Z,1001.04
2022-08-22T07:52:59.421Z,1000.99
2022-08-22T07:54:00.976Z,1001.00
2022-08-22T07:54:59.593Z,1000.99
2022-08-22T07:55:59.667Z,1001.00
2022-08-22T07:56:59.736Z,1001.03
2022-08-22T07:57:59.980Z,1000.87
2022-08-22T07:58:59.898Z,1000.76
2022-08-22T07:59:59.942Z,1000.79
2022-08-22T08:01:00.129Z,1000.81
2022-08-22T08:02:00.123Z,1000.85
2022-08-22T08:03:00.231Z,1000.81
2022-08-22T08:04:00.328Z,1000.84
2022-08-22T08:05:00.421Z,1000.82
2022-08-22T08:06:00.464Z,1000.87
2022-08-22T08:07:00.541Z,1000.91
2022-08-22T08:08:00.821Z,1000.89
2022-08-22T08:09:00.748Z,1000.87
2022-08-22T08:10:00.796Z,1000.91
2022-08-22T08:11:00.887Z,1000.88
2022-08-22T08:12:00.970Z,1000.85
2022-08-22T08:13:02.450Z,1000.92
2022-08-22T08:14:01.150Z,1000.91
2022-08-22T08:15:01.240Z,1000.92
2022-08-22T08:16:01.333Z,1000.85
2022-08-22T08:17:01.428Z,1000.84
2022-08-22T08:18:01.489Z,1000.87
2022-08-22T08:19:01.570Z,1000.88
2022-08-22T08:20:01.609Z,1000.89
2022-08-22T08:21:01.704Z,1000.85
2022-08-22T08:22:01.787Z,1000.89
2022-08-22T08:23:01.891Z,1000.87
2022-08-22T08:24:03.650Z,1000.87
2022-08-22T08:25:02.067Z,1000.83
2022-08-22T08:26:02.153Z,1000.82
2022-08-22T08:27:02.222Z,1000.92
2022-08-22T08:28:02.418Z,1000.95
2022-08-22T08:29:02.405Z,1000.78
2022-08-22T08:30:02.503Z,1000.86
2022-08-22T08:31:02.583Z,1000.96
2022-08-22T08:32:02.665Z,1000.97
2022-08-22T08:33:24.937Z,1000.85
2022-08-22T08:34:02.802Z,1000.95
2022-08-22T08:35:02.903Z,1000.83
2022-08-22T08:36:03.923Z,1000.79
2022-08-22T08:37:03.036Z,1000.70
2022-08-22T08:38:03.116Z,1000.81
2022-08-22T08:39:03.230Z,1000.81
2022-08-22T08:40:03.358Z,1000.93
2022-08-22T08:41:03.417Z,1000.80
2022-08-22T08:42:03.489Z,1000.66
2022-08-22T08:43:03.593Z,1000.68
2022-08-22T08:44:03.676Z,1000.58
2022-08-22T08:45:03.799Z,1000.63
2022-08-22T08:46:03.838Z,1000.64
2022-08-22T08:47:03.930Z,1000.61
2022-08-22T08:48:04.014Z,1000.69
2022-08-22T08:49:06.558Z,1000.59
2022-08-22T08:50:04.180Z,1000.73
2022-08-22T08:51:04.254Z,1000.60
2022-08-22T08:52:04.338Z,1000.62
2022-08-22T08:53:04.414Z,1000.57
2022-08-22T08:54:04.517Z,1000.58
2022-08-22T08:55:19.821Z,1000.66
2022-08-22T08:56:04.651Z,1000.63
2022-08-22T08:57:04.726Z,1000.54
2022-08-22T08:58:06.644Z,1000.57
2022-08-22T08:59:10.092Z,1000.56
2022-08-22T09:00:04.956Z,1000.63
2022-08-22T09:01:05.066Z,1000.55
2022-08-22T09:02:05.107Z,1000.54
2022-08-22T09:03:06.859Z,1000.53
2022-08-22T09:04:05.280Z,1000.51
2022-08-22T09:05:05.504Z,1000.50
2022-08-22T09:06:05.429Z,1000.47
2022-08-22T09:07:05.524Z,1000.49
2022-08-22T09:08:05.608Z,1000.48
2022-08-22T09:09:05.681Z,1000.45
2022-08-22T09:10:05.783Z,1000.46
2022-08-22T09:11:09.904Z,1000.46
2022-08-22T09:12:05.938Z,1000.43
2022-08-22T09:40:15.454Z,1000.43
2022-08-22T09:40:30.119Z,1000.36
2022-08-22T09:41:30.176Z,1000.31
2022-08-22T09:42:30.286Z,1000.31
2022-08-22T09:43:30.367Z,1000.28
2022-08-22T09:44:30.471Z,1000.24
2022-08-22T09:45:30.564Z,1000.25
2022-08-22T09:46:36.963Z,1000.27
2022-08-22T09:47:32.619Z,1000.25
2022-08-22T09:48:30.788Z,1000.25
2022-08-22T09:49:30.867Z,1000.23
2022-08-22T09:50:30.958Z,1000.27
2022-08-22T09:51:32.356Z,1000.22
2022-08-22T09:52:34.994Z,1000.24
2022-08-22T09:53:31.183Z,1000.23
2022-08-22T09:54:32.748Z,1000.27
2022-08-22T09:55:34.956Z,1000.29
2022-08-22T09:56:31.381Z,1000.26
2022-08-22T09:57:31.463Z,1000.25
2022-08-22T09:58:31.539Z,1000.33
2022-08-22T09:59:31.605Z,1000.33
2022-08-22T10:00:31.730Z,1000.34
2022-08-22T10:01:33.017Z,1000.32
2022-08-22T10:02:31.850Z,1000.32
2022-08-22T10:03:31.929Z,1000.30
2022-08-22T10:04:32.003Z,1000.26
2022-08-22T10:05:40.270Z,1000.21
2022-08-22T10:06:32.155Z,1000.21
2022-08-22T10:07:32.236Z,1000.17
2022-08-22T10:08:32.311Z,1000.17
2022-08-22T10:09:32.402Z,1000.15
2022-08-22T10:10:32.498Z,1000.11
2022-08-22T10:11:32.579Z,1000.15
2022-08-22T10:12:36.321Z,1000.13
2022-08-22T10:13:32.732Z,1000.15
2022-08-22T10:14:32.802Z,1000.15
2022-08-22T10:15:32.899Z,1000.15
2022-08-22T10:16:32.940Z,1000.17
2022-08-22T10:17:33.029Z,1000.13
2022-08-22T10:18:33.103Z,1000.15
2022-08-22T10:19:33.174Z,1000.14
2022-08-22T10:20:33.270Z,1000.11
2022-08-22T10:21:33.332Z,1000.08
2022-08-22T10:22:33.419Z,1000.05
2022-08-22T10:23:33.488Z,1000.03
2022-08-22T10:24:33.551Z,1000.04
2022-08-22T10:25:33.681Z,1000.08
2022-08-22T10:26:38.380Z,1000.06
2022-08-22T10:27:33.811Z,1000.08
2022-08-22T10:28:33.857Z,1000.10
2022-08-22T10:29:33.953Z,1000.08
2022-08-22T10:30:34.048Z,1000.09
2022-08-22T10:31:34.119Z,1000.14
2022-08-22T10:32:34.199Z,1000.06
2022-08-22T10:33:34.280Z,1000.03
2022-08-22T10:34:34.361Z,1000.03
2022-08-22T10:35:34.497Z,1000.02
2022-08-22T10:36:34.535Z,1000.01
2022-08-22T10:37:34.625Z,999.99
2022-08-22T10:38:39.406Z,999.97
2022-08-22T10:39:34.814Z,999.95
2022-08-22T10:40:34.911Z,999.98
2022-08-22T10:41:34.985Z,999.99
2022-08-22T10:42:35.861Z,1000.00
2022-08-22T10:43:35.159Z,999.98
2022-08-22T10:44:35.188Z,999.99
2022-08-22T10:45:37.060Z,999.95
2022-08-22T10:46:35.609Z,999.92
2022-08-22T10:47:35.481Z,1000.00
2022-08-22T10:48:35.772Z,999.97
2022-08-22T10:49:35.642Z,999.91
2022-08-22T10:50:35.696Z,999.91
2022-08-22T10:51:35.766Z,999.90
2022-08-22T10:52:35.844Z,999.91
2022-08-22T10:53:36.025Z,999.85
2022-08-22T10:54:35.996Z,999.86
2022-08-22T10:55:36.104Z,999.89
2022-08-22T10:56:36.139Z,999.88
2022-08-22T10:57:36.237Z,999.85
2022-08-22T10:58:36.305Z,999.85
2022-08-22T10:59:36.394Z,999.85
2022-08-22T11:00:36.503Z,999.85
2022-08-22T11:01:37.902Z,999.85
2022-08-22T11:02:36.644Z,999.82
2022-08-22T11:03:36.734Z,999.84
2022-08-22T11:04:36.785Z,999.81
2022-08-22T11:05:37.107Z,999.80
2022-08-22T11:06:36.943Z,999.82
2022-08-22T11:07:37.039Z,999.85
2022-08-22T11:08:37.107Z,999.84
2022-08-22T11:09:37.247Z,999.85
2022-08-22T11:10:37.281Z,999.89
2022-08-22T11:11:37.557Z,999.89
2022-08-22T11:12:41.657Z,999.89
2022-08-22T11:13:37.522Z,999.87
2022-08-22T11:14:37.603Z,999.85
2022-08-22T11:15:37.725Z,999.83
2022-08-22T11:16:41.613Z,999.83
2022-08-22T11:17:41.626Z,999.86
2022-08-22T11:18:37.946Z,999.82
2022-08-22T11:19:38.045Z,999.81
2022-08-22T11:20:38.152Z,999.80
2022-08-22T11:21:38.211Z,999.77
2022-08-22T11:22:38.290Z,999.78
2022-08-22T11:23:38.383Z,999.77
2022-08-22T11:24:55.862Z,999.75
2022-08-22T11:25:39.251Z,999.72
2022-08-22T11:26:47.397Z,999.73
2022-08-22T11:27:40.130Z,999.72
2022-08-22T11:28:38.795Z,999.64
2022-08-22T11:29:38.905Z,999.67
2022-08-22T11:30:45.231Z,999.64
2022-08-22T11:31:39.057Z,999.64
2022-08-22T11:32:39.148Z,999.61
2022-08-22T11:33:47.392Z,999.61
2022-08-22T11:34:39.336Z,999.58
2022-08-22T11:35:39.449Z,999.54
2022-08-22T11:36:39.513Z,999.52
2022-08-22T11:37:42.839Z,999.48
2022-08-22T11:38:39.701Z,999.50
2022-08-22T11:39:39.865Z,999.46
2022-08-22T11:40:39.890Z,999.45
2022-08-22T11:41:39.954Z,999.52
2022-08-22T11:42:47.762Z,999.48
2022-08-22T11:43:40.122Z,999.44
2022-08-22T11:44:50.243Z,999.47
2022-08-22T11:45:40.330Z,999.44
2022-08-22T11:46:40.362Z,999.44
2022-08-22T11:47:40.452Z,999.42
2022-08-22T11:48:40.508Z,999.45
2022-08-22T11:49:40.598Z,999.46
2022-08-22T11:50:42.172Z,999.40
2022-08-22T11:51:40.757Z,999.39
2022-08-22T11:52:40.847Z,999.37
2022-08-22T11:53:40.948Z,999.33
2022-08-22T11:54:42.260Z,999.32
2022-08-22T11:55:41.216Z,999.33
2022-08-22T11:56:41.692Z,999.30
2022-08-22T11:57:41.731Z,999.27
2022-08-22T11:58:41.304Z,999.25
2022-08-22T11:59:43.162Z,999.27
2022-08-22T12:00:41.850Z,999.25
2022-08-22T12:01:41.595Z,999.20
2022-08-22T12:02:41.666Z,999.23
2022-08-22T12:03:41.668Z,999.21
2022-08-22T12:04:43.987Z,999.20
2022-08-22T12:05:41.825Z,999.22
2022-08-22T12:06:41.876Z,999.20
2022-08-22T12:07:44.408Z,999.22
2022-08-22T12:08:42.057Z,999.23
2022-08-22T12:09:42.135Z,999.21
2022-08-22T12:10:42.209Z,999.23
2022-08-22T12:11:42.271Z,999.20
2022-08-22T12:12:42.382Z,999.16
2022-08-22T12:13:42.431Z,999.12
2022-08-22T12:14:42.881Z,999.11
2022-08-22T12:15:42.587Z,999.19
2022-08-22T12:16:42.639Z,999.14
2022-08-22T12:17:55.064Z,999.18
2022-08-22T12:18:42.794Z,999.16
2022-08-22T12:20:05.734Z,999.14
2022-08-22T12:20:45.429Z,999.12
2022-08-22T12:21:43.037Z,999.13
2022-08-22T12:22:44.322Z,999.12
2022-08-22T12:23:49.316Z,999.11
2022-08-22T12:24:43.283Z,999.14
2022-08-22T12:25:44.529Z,999.10
2022-08-22T12:26:43.417Z,999.11
2022-08-22T12:27:50.659Z,999.12
2022-08-22T12:28:43.595Z,999.07
2022-08-22T12:29:45.282Z,999.08
2022-08-22T12:30:43.799Z,999.06
2022-08-22T12:31:43.862Z,999.05
2022-08-22T12:32:45.857Z,999.07
2022-08-22T12:33:44.025Z,999.01
2022-08-22T12:34:44.099Z,999.04
2022-08-22T12:35:44.220Z,999.06
2022-08-22T12:36:44.274Z,999.02
2022-08-22T12:37:53.101Z,998.98
2022-08-22T12:38:44.421Z,999.01